createdAt,value
2018-05-18T00:00:54.763Z,93.20
2018-05-18T00:03:22.288Z,93.30
2018-05-18T00:05:49.843Z,93.00
2018-05-18T00:08:17.599Z,93.30
2018-05-18T00:10:46.145Z,93.60
2018-05-18T00:13:13.691Z,93.30
2018-05-18T00:15:41.305Z,93.40
2018-05-18T00:18:09.699Z,93.80
2018-05-18T00:20:37.318Z,93.80
2018-05-18T00:23:04.911Z,93.70
2018-05-18T00:25:32.459Z,93.50
2018-05-18T00:28:00.018Z,93.60
2018-05-18T00:30:27.698Z,93.60
2018-05-18T00:32:55.239Z,93.50
2018-05-18T00:35:22.919Z,93.80
2018-05-18T00:37:50.462Z,93.80
2018-05-18T00:40:18.021Z,94.10
2018-05-18T00:42:46.423Z,94.10
2018-05-18T00:45:14.063Z,94.10
2018-05-18T00:47:41.641Z,94.50
2018-05-18T00:50:09.998Z,94.30
2018-05-18T00:52:37.566Z,94.30
2018-05-18T00:55:16.924Z,94.40
2018-05-18T00:57:44.455Z,94.70
2018-05-18T01:00:12.050Z,94.60
2018-05-18T01:02:39.690Z,95.00
2018-05-18T01:05:07.194Z,94.80
2018-05-18T01:07:34.800Z,94.40
2018-05-18T01:10:02.485Z,94.70
2018-05-18T01:12:30.042Z,94.70
2018-05-18T01:14:58.440Z,95.30
2018-05-18T01:17:26.007Z,95.20
2018-05-18T01:19:53.664Z,95.20
2018-05-18T01:22:21.527Z,95.10
2018-05-18T01:24:49.190Z,95.10
2018-05-18T01:27:16.807Z,95.30
2018-05-18T01:29:44.416Z,95.10
2018-05-18T01:32:12.080Z,95.80
2018-05-18T01:34:39.739Z,95.60
2018-05-18T01:37:07.272Z,95.80
2018-05-18T01:39:34.962Z,96.50
2018-05-18T01:42:02.523Z,96.40
2018-05-18T01:44:30.238Z,96.40
2018-05-18T01:46:57.793Z,96.60
2018-05-18T01:49:25.408Z,96.60
2018-05-18T01:51:53.010Z,96.70
2018-05-18T01:54:20.735Z,96.80
2018-05-18T01:56:48.500Z,96.80
2018-05-18T01:59:16.193Z,96.80
2018-05-18T02:01:43.922Z,96.80
2018-05-18T02:04:11.646Z,96.90
2018-05-18T02:06:39.356Z,97.00
2018-05-18T02:11:39.316Z,96.90
2018-05-18T02:14:06.945Z,97.00
2018-05-18T02:16:34.717Z,97.20
2018-05-18T02:19:02.467Z,97.40
2018-05-18T02:21:30.865Z,97.60
2018-05-18T02:23:58.506Z,97.60
2018-05-18T02:26:26.187Z,97.60
2018-05-18T02:28:53.851Z,98.00
2018-05-18T02:31:21.491Z,98.00
2018-05-18T02:33:49.152Z,98.20
2018-05-18T02:36:16.813Z,97.90
2018-05-18T02:38:45.271Z,98.20
2018-05-18T02:41:12.840Z,98.10
2018-05-18T02:43:40.462Z,98.50
2018-05-18T02:46:08.069Z,98.30
2018-05-18T02:48:35.759Z,98.50
2018-05-18T02:51:03.371Z,98.00
2018-05-18T02:53:30.981Z,98.00
2018-05-18T02:55:58.617Z,97.70
2018-05-18T02:58:26.952Z,97.50
2018-05-18T03:00:54.582Z,97.50
2018-05-18T03:03:22.244Z,97.40
2018-05-18T03:05:49.842Z,97.20
2018-05-18T03:08:17.526Z,97.30
2018-05-18T03:10:45.059Z,97.40
2018-05-18T03:13:12.610Z,97.30
2018-05-18T03:15:40.246Z,97.40
2018-05-18T03:18:07.835Z,97.40
2018-05-18T03:20:35.372Z,97.30
2018-05-18T03:23:03.673Z,97.20
2018-05-18T03:25:31.250Z,97.20
2018-05-18T03:27:58.763Z,97.30
2018-05-18T03:30:26.424Z,97.50
2018-05-18T03:32:54.802Z,97.50
2018-05-18T03:35:23.054Z,97.50
2018-05-18T03:37:51.412Z,97.50
2018-05-18T03:40:19.104Z,97.70
2018-05-18T03:42:46.782Z,97.80
2018-05-18T03:45:14.612Z,97.30
2018-05-18T03:47:42.166Z,97.40
2018-05-18T03:50:09.673Z,97.00
2018-05-18T03:52:37.230Z,96.80
2018-05-18T03:55:05.503Z,96.70
2018-05-18T03:57:33.087Z,96.70
2018-05-18T04:00:00.679Z,96.90
2018-05-18T04:02:39.932Z,96.40
2018-05-18T04:05:19.323Z,96.30
2018-05-18T04:07:58.551Z,96.00
2018-05-18T04:10:26.202Z,96.20
2018-05-18T04:12:53.627Z,96.50
2018-05-18T04:15:21.987Z,96.30
2018-05-18T04:17:49.494Z,96.60
2018-05-18T04:20:17.042Z,96.50
2018-05-18T04:22:45.294Z,96.30
2018-05-18T04:25:12.788Z,96.40
2018-05-18T04:27:40.293Z,96.40
2018-05-18T04:30:08.042Z,96.20
2018-05-18T04:32:35.471Z,96.10
2018-05-18T04:35:02.984Z,96.60
2018-05-18T04:37:30.557Z,96.50
2018-05-18T04:39:58.181Z,96.50
2018-05-18T04:42:25.707Z,96.80
2018-05-18T04:44:53.983Z,96.20
2018-05-18T04:47:21.517Z,96.10
2018-05-18T04:49:49.089Z,96.20
2018-05-18T04:52:16.639Z,96.00
2018-05-18T04:54:44.127Z,95.80
2018-05-18T04:57:12.375Z,96.40
2018-05-18T04:59:39.988Z,96.40
2018-05-18T05:02:07.537Z,96.20
2018-05-18T05:04:35.105Z,95.90
2018-05-18T05:07:02.662Z,96.80
2018-05-18T05:09:30.245Z,96.00
2018-05-18T05:11:57.945Z,95.90
2018-05-18T05:14:25.616Z,95.80
2018-05-18T05:16:53.128Z,96.00
2018-05-18T05:19:20.729Z,95.80
2018-05-18T05:21:48.345Z,96.10
2018-05-18T05:24:15.949Z,96.10
2018-05-18T05:26:43.480Z,95.70
2018-05-18T05:29:11.067Z,95.30
2018-05-18T05:31:38.758Z,95.00
2018-05-18T05:34:06.391Z,95.20
2018-05-18T05:36:34.076Z,95.10
2018-05-18T05:39:01.639Z,94.60
2018-05-18T05:41:29.189Z,94.50
2018-05-18T05:43:56.754Z,94.80
2018-05-18T05:46:24.374Z,95.50
2018-05-18T05:48:51.870Z,94.80
2018-05-18T05:51:19.398Z,95.10
2018-05-18T05:53:47.097Z,94.00
2018-05-18T05:56:14.904Z,93.50
2018-05-18T05:58:42.461Z,93.80
2018-05-18T06:01:10.330Z,94.20
2018-05-18T06:03:37.890Z,94.10
2018-05-18T06:06:05.407Z,93.20
2018-05-18T06:08:33.220Z,93.60
2018-05-18T06:11:00.834Z,93.50
2018-05-18T06:13:28.391Z,93.10
2018-05-18T06:15:56.875Z,93.30
2018-05-18T06:18:24.378Z,93.00
2018-05-18T06:20:51.966Z,92.50
2018-05-18T06:23:19.656Z,92.70
2018-05-18T06:25:47.214Z,93.20
2018-05-18T06:28:14.752Z,93.60
2018-05-18T06:30:42.352Z,93.20
2018-05-18T06:33:09.815Z,92.20
2018-05-18T06:35:37.566Z,91.70
2018-05-18T06:38:05.126Z,91.80
2018-05-18T06:40:32.589Z,91.90
2018-05-18T06:43:00.135Z,92.60
2018-05-18T06:45:27.619Z,92.50
2018-05-18T06:47:55.166Z,91.70
2018-05-18T06:50:22.674Z,91.60
2018-05-18T06:52:50.267Z,91.80
2018-05-18T06:55:17.847Z,92.10
2018-05-18T06:57:45.327Z,92.30
2018-05-18T07:00:13.023Z,92.30
2018-05-18T07:02:40.530Z,91.00
2018-05-18T07:05:08.026Z,91.90
2018-05-18T07:07:35.581Z,90.40
2018-05-18T07:10:03.060Z,91.40
2018-05-18T07:12:30.604Z,90.70
2018-05-18T07:14:58.080Z,91.10
2018-05-18T07:17:25.637Z,90.70
2018-05-18T07:19:53.276Z,91.30
2018-05-18T07:22:20.744Z,91.60
2018-05-18T07:24:48.258Z,91.70
2018-05-18T07:27:16.030Z,92.00
2018-05-18T07:29:43.495Z,91.80
2018-05-18T07:32:11.867Z,92.10
2018-05-18T07:34:39.628Z,92.10
2018-05-18T07:37:07.136Z,91.10
2018-05-18T07:39:34.619Z,91.20
2018-05-18T07:42:02.315Z,90.60
2018-05-18T07:44:30.083Z,90.50
2018-05-18T07:46:57.678Z,89.90
2018-05-18T07:49:25.239Z,91.20
2018-05-18T07:51:52.829Z,90.70
2018-05-18T07:54:20.356Z,90.80
2018-05-18T07:56:48.300Z,90.50
2018-05-18T07:59:16.712Z,91.50
2018-05-18T08:01:44.262Z,91.50
2018-05-18T08:04:12.613Z,90.40
2018-05-18T08:06:40.518Z,90.40
2018-05-18T08:09:08.173Z,89.30
2018-05-18T08:11:35.947Z,88.70
2018-05-18T08:14:03.509Z,86.60
2018-05-18T08:16:31.210Z,86.10
2018-05-18T08:18:58.756Z,82.60
2018-05-18T08:21:26.286Z,83.30
2018-05-18T08:23:54.077Z,81.30
2018-05-18T08:26:21.697Z,81.00
2018-05-18T08:29:01.037Z,81.20
2018-05-18T08:31:29.353Z,78.70
2018-05-18T08:33:56.885Z,78.80
2018-05-18T08:36:24.435Z,77.50
2018-05-18T08:38:51.899Z,76.40
2018-05-18T08:41:19.472Z,75.50
2018-05-18T08:43:47.001Z,75.60
2018-05-18T08:46:14.610Z,76.10
2018-05-18T08:48:42.205Z,77.00
2018-05-18T08:51:09.763Z,76.50
2018-05-18T08:53:37.324Z,76.90
2018-05-18T08:56:04.898Z,75.40
2018-05-18T08:58:32.545Z,73.40
2018-05-18T09:01:00.368Z,73.50
2018-05-18T09:03:27.943Z,72.00
2018-05-18T09:05:55.498Z,71.10
2018-05-18T09:08:23.027Z,69.80
2018-05-18T09:10:50.661Z,69.00
2018-05-18T09:13:18.351Z,69.30
2018-05-18T09:15:46.763Z,66.30
2018-05-18T09:18:14.396Z,66.30
2018-05-18T09:20:42.590Z,63.70
2018-05-18T09:23:10.128Z,63.50
2018-05-18T09:25:37.860Z,64.40
2018-05-18T09:28:05.376Z,65.60
2018-05-18T09:30:32.935Z,65.00
2018-05-18T09:33:00.490Z,64.70
2018-05-18T09:35:28.106Z,62.30
2018-05-18T09:37:55.575Z,59.60
2018-05-18T09:40:23.330Z,56.30
2018-05-18T09:42:50.803Z,54.20
2018-05-18T09:45:18.581Z,51.40
2018-05-18T09:47:46.452Z,50.10
2018-05-18T09:50:14.684Z,47.10
2018-05-18T09:52:42.175Z,47.10
2018-05-18T09:55:10.042Z,46.60
2018-05-18T09:57:37.390Z,45.40
2018-05-18T10:00:05.154Z,45.00
2018-05-18T10:02:32.882Z,45.10
2018-05-18T10:05:00.370Z,45.60
2018-05-18T10:07:27.978Z,45.70
2018-05-18T10:09:55.561Z,47.60
2018-05-18T10:12:23.028Z,46.50
2018-05-18T10:14:50.512Z,46.00
2018-05-18T10:17:18.274Z,45.30
2018-05-18T10:19:45.845Z,44.60
2018-05-18T10:22:13.366Z,45.50
2018-05-18T10:24:41.022Z,44.20
2018-05-18T10:27:08.666Z,45.20
2018-05-18T10:29:36.134Z,43.40
2018-05-18T10:32:03.640Z,42.70
2018-05-18T10:34:31.102Z,41.70
2018-05-18T10:36:58.595Z,42.20
2018-05-18T10:39:26.081Z,41.20
2018-05-18T10:41:53.571Z,40.60
2018-05-18T10:44:21.101Z,40.70
2018-05-18T10:46:48.694Z,39.80
2018-05-18T10:49:16.150Z,39.50
2018-05-18T10:51:43.618Z,40.00
2018-05-18T10:54:11.354Z,38.40
2018-05-18T10:56:38.819Z,38.10
2018-05-18T10:59:06.627Z,37.30
2018-05-18T11:01:34.288Z,36.10
2018-05-18T11:04:01.961Z,36.30
2018-05-18T11:06:29.855Z,35.40
2018-05-18T11:08:57.706Z,36.20
2018-05-18T11:11:25.275Z,38.20
2018-05-18T11:13:52.968Z,39.20
2018-05-18T11:16:20.797Z,38.40
2018-05-18T11:18:48.381Z,37.80
2018-05-18T11:21:15.954Z,36.80
2018-05-18T11:23:43.415Z,36.70
2018-05-18T11:26:10.923Z,36.20
2018-05-18T11:28:38.439Z,36.70
2018-05-18T11:31:06.009Z,36.50
2018-05-18T11:33:33.475Z,37.00
2018-05-18T11:36:01.851Z,34.50
2018-05-18T11:38:30.848Z,33.90
2018-05-18T11:40:59.083Z,32.70
2018-05-18T11:43:26.678Z,32.60
2018-05-18T11:45:55.722Z,32.80
2018-05-18T11:48:23.439Z,32.70
2018-05-18T11:50:52.418Z,33.10
2018-05-18T11:53:19.888Z,33.10
2018-05-18T11:55:48.890Z,33.40
2018-05-18T11:58:17.863Z,33.60
2018-05-18T12:00:45.338Z,33.50
2018-05-18T12:03:14.315Z,33.70
2018-05-18T12:05:41.775Z,33.70
2018-05-18T12:08:09.350Z,33.30
2018-05-18T12:10:37.015Z,33.00
2018-05-18T12:13:06.007Z,32.80
2018-05-18T12:15:33.466Z,32.70
2018-05-18T12:18:01.755Z,32.90
2018-05-18T12:20:29.278Z,33.00
2018-05-18T12:22:56.759Z,32.50
2018-05-18T12:25:25.759Z,33.30
2018-05-18T12:27:54.051Z,33.50
2018-05-18T12:30:21.590Z,33.60
2018-05-18T12:32:50.562Z,33.70
2018-05-18T12:35:18.041Z,33.70
2018-05-18T12:37:45.555Z,33.40
2018-05-18T12:40:13.046Z,32.50
2018-05-18T12:42:40.881Z,32.90
2018-05-18T12:45:08.414Z,34.50
2018-05-18T12:47:35.954Z,34.60
2018-05-18T12:50:03.418Z,35.40
2018-05-18T12:52:30.887Z,36.60
2018-05-18T12:54:58.345Z,36.30
2018-05-18T12:57:26.244Z,35.70
2018-05-18T12:59:53.709Z,35.90
2018-05-18T13:02:21.246Z,35.30
2018-05-18T13:04:48.768Z,35.10
2018-05-18T13:07:16.237Z,35.90
2018-05-18T13:09:43.914Z,35.20
2018-05-18T13:12:11.375Z,36.90
2018-05-18T13:14:38.915Z,35.10
2018-05-18T13:17:07.884Z,34.40
2018-05-18T13:19:35.562Z,34.50
2018-05-18T13:22:03.038Z,32.80
2018-05-18T13:24:30.499Z,32.80
2018-05-18T13:26:57.966Z,32.00
2018-05-18T13:29:25.507Z,33.50
2018-05-18T13:31:52.974Z,34.60
2018-05-18T13:34:20.722Z,37.30
2018-05-18T13:36:48.486Z,37.30
2018-05-18T13:39:15.955Z,36.50
2018-05-18T13:41:45.248Z,36.30
2018-05-18T13:44:12.711Z,36.30
2018-05-18T13:46:40.474Z,35.20
2018-05-18T13:49:08.236Z,35.70
2018-05-18T13:51:35.820Z,36.80
2018-05-18T13:54:04.082Z,37.80
2018-05-18T13:56:31.823Z,37.10
2018-05-18T13:58:59.306Z,38.40
2018-05-18T14:01:27.061Z,39.70
2018-05-18T14:03:54.519Z,40.10
2018-05-18T14:06:21.987Z,41.60
2018-05-18T14:08:49.743Z,40.50
2018-05-18T14:11:17.510Z,39.60
2018-05-18T14:13:45.274Z,38.30
2018-05-18T14:16:12.730Z,37.40
2018-05-18T14:18:40.193Z,37.90
2018-05-18T14:21:07.652Z,38.50
2018-05-18T14:23:35.422Z,37.20
2018-05-18T14:26:03.206Z,38.30
2018-05-18T14:28:30.943Z,37.80
2018-05-18T14:30:58.400Z,37.80
2018-05-18T14:33:25.875Z,39.40
2018-05-18T14:35:53.349Z,39.10
2018-05-18T14:38:20.930Z,38.30
2018-05-18T14:40:48.538Z,40.10
2018-05-18T14:43:16.062Z,40.00
2018-05-18T14:45:43.534Z,41.30
2018-05-18T14:48:11.098Z,40.60
2018-05-18T14:50:38.601Z,41.40
2018-05-18T14:53:06.058Z,41.10
2018-05-18T14:55:33.594Z,41.60
2018-05-18T14:58:01.051Z,41.80
2018-05-18T15:00:28.818Z,41.70
2018-05-18T15:02:56.286Z,42.60
2018-05-18T15:05:23.752Z,41.70
2018-05-18T15:07:51.883Z,41.40
2018-05-18T15:10:19.576Z,41.10
2018-05-18T15:12:47.338Z,40.10
2018-05-18T15:15:14.802Z,41.70
2018-05-18T15:17:42.258Z,42.50
2018-05-18T15:20:09.730Z,42.70
2018-05-18T15:22:37.474Z,42.70
2018-05-18T15:25:04.947Z,44.30
2018-05-18T15:27:32.437Z,45.70
2018-05-18T15:29:59.904Z,46.30
2018-05-18T15:32:27.370Z,46.80
2018-05-18T15:34:54.835Z,48.40
2018-05-18T15:37:22.327Z,49.00
2018-05-18T15:39:49.774Z,49.00
2018-05-18T15:42:17.605Z,49.60
2018-05-18T15:44:45.079Z,50.20
2018-05-18T15:47:12.590Z,50.30
2018-05-18T15:49:40.051Z,50.70
2018-05-18T15:52:07.514Z,51.30
2018-05-18T15:54:35.053Z,51.10
2018-05-18T15:57:02.538Z,52.10
2018-05-18T15:59:29.999Z,52.00
2018-05-18T16:01:57.643Z,51.20
2018-05-18T16:04:25.226Z,52.80
2018-05-18T16:06:52.642Z,52.90
2018-05-18T16:09:20.318Z,53.00
2018-05-18T16:11:47.793Z,52.50
2018-05-18T16:14:15.335Z,52.20
2018-05-18T16:16:43.087Z,52.60
2018-05-18T16:19:10.558Z,53.50
2018-05-18T16:21:38.226Z,53.00
2018-05-18T16:24:05.690Z,53.00
2018-05-18T16:26:33.151Z,53.90
2018-05-18T16:29:00.690Z,54.10
2018-05-18T16:31:28.455Z,53.80
2018-05-18T16:33:56.429Z,54.20
2018-05-18T16:36:23.987Z,54.60
2018-05-18T16:38:51.455Z,54.30
2018-05-18T16:41:18.915Z,54.40
2018-05-18T16:43:46.663Z,54.70
2018-05-18T16:46:15.658Z,55.30
2018-05-18T16:48:43.123Z,55.40
2018-05-18T16:51:10.621Z,55.80
2018-05-18T16:53:38.080Z,55.50
2018-05-18T16:56:05.805Z,56.50
2018-05-18T16:58:33.478Z,57.20
2018-05-18T17:01:01.273Z,57.00
2018-05-18T17:03:28.726Z,56.90
2018-05-18T17:05:56.250Z,57.00
2018-05-18T17:08:24.005Z,56.70
2018-05-18T17:10:53.003Z,57.80
2018-05-18T17:13:21.980Z,58.40
2018-05-18T17:15:49.459Z,58.30
2018-05-18T17:18:17.019Z,58.60
2018-05-18T17:20:44.473Z,58.30
2018-05-18T17:23:12.135Z,58.50
2018-05-18T17:25:41.132Z,58.50
2018-05-18T17:28:08.594Z,58.40
2018-05-18T17:30:36.356Z,58.40
2018-05-18T17:33:04.643Z,59.40
2018-05-18T17:35:32.190Z,59.30
2018-05-18T17:37:59.659Z,59.80
2018-05-18T17:40:27.338Z,59.20
2018-05-18T17:42:54.879Z,59.40
2018-05-18T17:45:22.559Z,59.30
2018-05-18T17:47:50.306Z,59.50
2018-05-18T17:50:18.402Z,59.60
2018-05-18T17:52:45.942Z,60.20
2018-05-18T17:55:14.310Z,60.40
2018-05-18T17:57:43.283Z,60.10
2018-05-18T18:00:10.746Z,60.10
2018-05-18T18:02:38.239Z,60.50
2018-05-18T18:05:05.700Z,60.00
2018-05-18T18:07:33.163Z,60.20
2018-05-18T18:10:00.914Z,60.60
2018-05-18T18:12:28.674Z,60.50
2018-05-18T18:14:57.633Z,60.40
2018-05-18T18:17:25.128Z,60.40
2018-05-18T18:19:54.086Z,60.20
2018-05-18T18:22:21.635Z,60.40
2018-05-18T18:24:49.340Z,60.60
2018-05-18T18:27:18.339Z,61.90
2018-05-18T18:29:47.334Z,62.40
2018-05-18T18:32:15.627Z,62.60
2018-05-18T18:34:43.088Z,62.70
2018-05-18T18:37:10.563Z,62.20
2018-05-18T18:39:38.035Z,62.70
2018-05-18T18:42:05.506Z,62.50
2018-05-18T18:44:32.966Z,62.10
2018-05-18T18:47:00.426Z,62.50
2018-05-18T18:49:27.894Z,62.20
2018-05-18T18:51:55.361Z,63.10
2018-05-18T18:54:23.135Z,63.10
2018-05-18T18:56:50.902Z,63.00
2018-05-18T18:59:19.894Z,63.10
2018-05-18T19:01:47.374Z,63.10
2018-05-18T19:04:14.835Z,63.80
2018-05-18T19:06:42.307Z,64.30
2018-05-18T19:09:09.775Z,63.90
2018-05-18T19:11:37.246Z,64.20
2018-05-18T19:14:04.950Z,64.50
2018-05-18T19:16:32.714Z,65.30
2018-05-18T19:19:00.484Z,65.20
2018-05-18T19:21:27.939Z,66.20
2018-05-18T19:23:55.403Z,65.90
2018-05-18T19:26:23.783Z,66.00
2018-05-18T19:28:51.256Z,65.90
2018-05-18T19:31:18.733Z,66.60
2018-05-18T19:33:46.206Z,67.50
2018-05-18T19:36:13.918Z,67.70
2018-05-18T19:38:41.379Z,67.90
2018-05-18T19:41:08.847Z,68.30
2018-05-18T19:43:36.603Z,68.50
2018-05-18T19:46:05.574Z,69.10
2018-05-18T19:48:33.054Z,69.10
2018-05-18T19:51:00.638Z,69.40
2018-05-18T19:53:28.870Z,70.20
2018-05-18T19:55:56.646Z,70.10
2018-05-18T19:58:24.119Z,70.50
2018-05-18T20:00:51.591Z,70.40
2018-05-18T20:03:19.066Z,70.20
2018-05-18T20:05:46.596Z,70.00
2018-05-18T20:08:14.068Z,70.70
2018-05-18T20:10:42.294Z,71.10
2018-05-18T20:13:09.779Z,71.10
2018-05-18T20:15:37.250Z,71.60
2018-05-18T20:18:04.710Z,71.70
2018-05-18T20:20:32.471Z,71.70
2018-05-18T20:22:59.942Z,71.90
2018-05-18T20:25:27.407Z,72.60
2018-05-18T20:27:55.753Z,73.40
2018-05-18T20:30:23.472Z,74.20
2018-05-18T20:32:50.986Z,73.80
2018-05-18T20:35:18.595Z,74.20
2018-05-18T20:37:46.296Z,74.50
2018-05-18T20:40:14.571Z,74.00
2018-05-18T20:42:42.032Z,73.90
2018-05-18T20:45:09.638Z,74.50
2018-05-18T20:47:37.030Z,75.00
2018-05-18T20:50:04.578Z,75.50
2018-05-18T20:52:32.071Z,75.70
2018-05-18T20:55:00.300Z,76.40
2018-05-18T20:57:28.023Z,76.40
2018-05-18T20:59:55.492Z,77.10
2018-05-18T21:02:23.165Z,77.30
2018-05-18T21:04:50.702Z,77.30
2018-05-18T21:07:18.463Z,78.00
2018-05-18T21:09:46.854Z,78.40
2018-05-18T21:12:14.391Z,78.90
2018-05-18T21:14:41.858Z,78.90
2018-05-18T21:17:09.382Z,79.10
2018-05-18T21:19:36.981Z,79.30
2018-05-18T21:22:04.445Z,79.50
2018-05-18T21:24:32.218Z,81.60
2018-05-18T21:26:59.980Z,80.60
2018-05-18T21:29:27.742Z,81.10
2018-05-18T21:31:55.235Z,81.80
2018-05-18T21:34:22.713Z,82.20
2018-05-18T21:36:50.351Z,82.50
2018-05-18T21:39:17.808Z,82.70
2018-05-18T21:41:45.270Z,83.30
2018-05-18T21:44:12.747Z,83.30
2018-05-18T21:46:40.211Z,83.70
2018-05-18T21:49:07.714Z,83.60
2018-05-18T21:51:35.175Z,83.80
2018-05-18T21:54:02.941Z,84.10
2018-05-18T21:56:30.705Z,84.50
2018-05-18T21:58:58.471Z,85.30
2018-05-18T22:01:26.236Z,85.80
2018-05-18T22:03:53.715Z,86.40
2018-05-18T22:06:21.455Z,86.70
2018-05-18T22:08:48.919Z,87.10
2018-05-18T22:11:16.600Z,87.10
2018-05-18T22:13:44.138Z,87.20
2018-05-18T22:16:11.897Z,87.30
2018-05-18T22:18:39.614Z,87.90
2018-05-18T22:21:07.126Z,88.20
2018-05-18T22:23:34.843Z,88.50
2018-05-18T22:26:02.303Z,88.80
2018-05-18T22:28:29.802Z,89.60
2018-05-18T22:30:57.571Z,89.90
2018-05-18T22:33:25.339Z,90.00
2018-05-18T22:35:53.097Z,89.90
2018-05-18T22:38:20.778Z,89.70
2018-05-18T22:40:48.318Z,90.00
2018-05-18T22:43:16.090Z,89.90
2018-05-18T22:45:43.854Z,90.30
2018-05-18T22:48:11.615Z,90.30
2018-05-18T22:50:39.387Z,90.60
2018-05-18T22:53:07.146Z,90.90
2018-05-18T22:55:34.913Z,91.30
2018-05-18T22:58:02.682Z,91.90
2018-05-18T23:00:30.154Z,92.30
2018-05-18T23:02:57.826Z,92.40
2018-05-18T23:05:25.358Z,92.80
2018-05-18T23:07:53.077Z,92.80
2018-05-18T23:10:20.551Z,92.70
2018-05-18T23:12:48.013Z,93.20
2018-05-18T23:15:15.809Z,93.30
2018-05-18T23:17:43.279Z,93.20
2018-05-18T23:20:10.959Z,93.50
2018-05-18T23:22:38.483Z,93.70
2018-05-18T23:25:05.954Z,94.00
2018-05-18T23:27:33.710Z,94.30
2018-05-18T23:30:01.185Z,94.50
2018-05-18T23:32:28.659Z,94.70
2018-05-18T23:34:56.395Z,95.00
2018-05-18T23:37:24.079Z,95.40
2018-05-18T23:39:51.610Z,95.50
2018-05-18T23:42:19.383Z,95.90
2018-05-18T23:44:47.147Z,96.00
2018-05-18T23:47:14.620Z,96.10
2018-05-18T23:49:42.338Z,96.10
2018-05-18T23:52:09.826Z,96.50
2018-05-18T23:54:37.466Z,96.50
2018-05-18T23:57:05.047Z,96.40
2018-05-18T23:59:32.810Z,96.50
